sensor_id;sensor_type;location;lat;lon;timestamp;temperature;humidity
21302;DHT22;10810;48.270;9.996;2023-05-10T00:01:12;13.70;99.90
21302;DHT22;10810;48.270;9.996;2023-05-10T00:03:48;13.60;99.90
21302;DHT22;10810;48.270;9.996;2023-05-10T00:06:42;13.50;99.90
21302;DHT22;10810;48.270;9.996;2023-05-10T00:12:44;13.50;99.90
21302;DHT22;10810;48.270;9.996;2023-05-10T00:15:11;13.50;99.90
21302;DHT22;10810;48.270;9.996;2023-05-10T00:17:44;13.50;99.90
21302;DHT22;10810;48.270;9.996;2023-05-10T00:20:17;13.40;99.90
21302;DHT22;10810;48.270;9.996;2023-05-10T00:22:57;13.40;99.90
21302;DHT22;10810;48.270;9.996;2023-05-10T00:26:06;13.50;99.90
21302;DHT22;10810;48.270;9.996;2023-05-10T00:28:55;13.50;99.90
21302;DHT22;10810;48.270;9.996;2023-05-10T00:31:29;13.40;99.90
21302;DHT22;10810;48.270;9.996;2023-05-10T00:34:44;13.30;99.90
21302;DHT22;10810;48.270;9.996;2023-05-10T00:37:29;12.70;99.90
21302;DHT22;10810;48.270;9.996;2023-05-10T00:40:07;13.50;99.90
21302;DHT22;10810;48.270;9.996;2023-05-10T00:42:38;13.40;99.90
21302;DHT22;10810;48.270;9.996;2023-05-10T00:46:06;13.40;99.90
21302;DHT22;10810;48.270;9.996;2023-05-10T00:48:42;13.40;99.90
21302;DHT22;10810;48.270;9.996;2023-05-10T00:51:21;13.40;99.90
21302;DHT22;10810;48.270;9.996;2023-05-10T00:53:57;13.30;99.90
21302;DHT22;10810;48.270;9.996;2023-05-10T00:56:46;13.60;99.90
21302;DHT22;10810;48.270;9.996;2023-05-10T00:59:15;13.40;99.90
21302;DHT22;10810;48.270;9.996;2023-05-10T01:01:45;13.30;99.90
21302;DHT22;10810;48.270;9.996;2023-05-10T01:04:35;13.30;99.90
21302;DHT22;10810;48.270;9.996;2023-05-10T01:07:07;13.20;99.90
21302;DHT22;10810;48.270;9.996;2023-05-10T01:09:45;13.20;99.90
21302;DHT22;10810;48.270;9.996;2023-05-10T01:15:33;13.20;99.90
21302;DHT22;10810;48.270;9.996;2023-05-10T01:19:12;13.10;99.90
21302;DHT22;10810;48.270;9.996;2023-05-10T01:21:41;13.10;99.90
21302;DHT22;10810;48.270;9.996;2023-05-10T01:30:56;13.10;99.90
21302;DHT22;10810;48.270;9.996;2023-05-10T01:33:35;13.10;99.90
21302;DHT22;10810;48.270;9.996;2023-05-10T01:36:14;13.00;99.90
21302;DHT22;10810;48.270;9.996;2023-05-10T01:39:32;13.00;99.90
21302;DHT22;10810;48.270;9.996;2023-05-10T01:42:31;13.00;99.90
21302;DHT22;10810;48.270;9.996;2023-05-10T01:45:10;12.90;99.90
21302;DHT22;10810;48.270;9.996;2023-05-10T01:48:27;13.00;99.90
21302;DHT22;10810;48.270;9.996;2023-05-10T01:51:23;12.90;99.90
21302;DHT22;10810;48.270;9.996;2023-05-10T01:54:01;12.80;99.90
21302;DHT22;10810;48.270;9.996;2023-05-10T01:56:55;12.80;99.90
21302;DHT22;10810;48.270;9.996;2023-05-10T01:59:29;12.90;99.90
21302;DHT22;10810;48.270;9.996;2023-05-10T02:02:32;13.00;99.90
21302;DHT22;10810;48.270;9.996;2023-05-10T02:05:20;12.70;99.90
21302;DHT22;10810;48.270;9.996;2023-05-10T02:08:00;12.80;99.90
21302;DHT22;10810;48.270;9.996;2023-05-10T02:11:00;12.90;99.90
21302;DHT22;10810;48.270;9.996;2023-05-10T02:13:50;12.90;99.90
21302;DHT22;10810;48.270;9.996;2023-05-10T02:16:45;12.90;99.90
21302;DHT22;10810;48.270;9.996;2023-05-10T02:22:56;12.90;99.90
21302;DHT22;10810;48.270;9.996;2023-05-10T02:25:48;13.00;99.90
21302;DHT22;10810;48.270;9.996;2023-05-10T02:28:31;12.90;99.90
21302;DHT22;10810;48.270;9.996;2023-05-10T02:31:38;12.90;99.90
21302;DHT22;10810;48.270;9.996;2023-05-10T02:40:24;12.90;99.90
21302;DHT22;10810;48.270;9.996;2023-05-10T02:42:59;12.90;99.90
21302;DHT22;10810;48.270;9.996;2023-05-10T02:45:41;12.90;99.90
21302;DHT22;10810;48.270;9.996;2023-05-10T02:50:13;12.80;99.90
21302;DHT22;10810;48.270;9.996;2023-05-10T02:51:44;12.90;99.90
21302;DHT22;10810;48.270;9.996;2023-05-10T02:54:44;12.90;99.90
21302;DHT22;10810;48.270;9.996;2023-05-10T02:57:34;12.90;99.90
21302;DHT22;10810;48.270;9.996;2023-05-10T03:03:37;13.00;99.90
21302;DHT22;10810;48.270;9.996;2023-05-10T03:06:55;11.80;99.90
21302;DHT22;10810;48.270;9.996;2023-05-10T03:09:52;12.90;99.90
21302;DHT22;10810;48.270;9.996;2023-05-10T03:13:05;12.90;99.90
21302;DHT22;10810;48.270;9.996;2023-05-10T03:16:00;12.80;99.90
21302;DHT22;10810;48.270;9.996;2023-05-10T03:21:43;12.80;99.90
21302;DHT22;10810;48.270;9.996;2023-05-10T03:24:27;12.70;99.90
21302;DHT22;10810;48.270;9.996;2023-05-10T03:27:17;12.70;99.90
21302;DHT22;10810;48.270;9.996;2023-05-10T03:31:51;12.80;99.90
21302;DHT22;10810;48.270;9.996;2023-05-10T03:33:23;12.80;99.90
21302;DHT22;10810;48.270;9.996;2023-05-10T03:35:53;12.70;99.90
21302;DHT22;10810;48.270;9.996;2023-05-10T03:38:26;12.60;99.90
21302;DHT22;10810;48.270;9.996;2023-05-10T03:41:07;12.60;99.90
21302;DHT22;10810;48.270;9.996;2023-05-10T03:44:02;12.60;99.90
21302;DHT22;10810;48.270;9.996;2023-05-10T03:46:31;12.60;99.90
21302;DHT22;10810;48.270;9.996;2023-05-10T03:49:10;12.60;99.90
21302;DHT22;10810;48.270;9.996;2023-05-10T03:51:56;12.30;99.90
21302;DHT22;10810;48.270;9.996;2023-05-10T03:58:06;12.60;99.90
21302;DHT22;10810;48.270;9.996;2023-05-10T04:00:36;12.50;99.90
21302;DHT22;10810;48.270;9.996;2023-05-10T04:03:15;12.50;99.90
21302;DHT22;10810;48.270;9.996;2023-05-10T04:05:43;12.50;99.90
21302;DHT22;10810;48.270;9.996;2023-05-10T04:08:29;12.50;99.90
21302;DHT22;10810;48.270;9.996;2023-05-10T04:11:13;12.60;99.90
21302;DHT22;10810;48.270;9.996;2023-05-10T04:20:14;12.40;99.90
21302;DHT22;10810;48.270;9.996;2023-05-10T04:23:11;12.30;99.90
21302;DHT22;10810;48.270;9.996;2023-05-10T04:26:16;12.30;99.90
21302;DHT22;10810;48.270;9.996;2023-05-10T04:29:03;12.40;99.90
21302;DHT22;10810;48.270;9.996;2023-05-10T04:34:57;12.30;99.90
21302;DHT22;10810;48.270;9.996;2023-05-10T04:37:30;12.30;99.90
21302;DHT22;10810;48.270;9.996;2023-05-10T04:46:47;12.40;99.90
21302;DHT22;10810;48.270;9.996;2023-05-10T04:59:43;12.60;99.90
21302;DHT22;10810;48.270;9.996;2023-05-10T05:06:26;12.50;99.90
21302;DHT22;10810;48.270;9.996;2023-05-10T05:22:13;12.70;99.90
21302;DHT22;10810;48.270;9.996;2023-05-10T05:25:03;12.70;99.90
21302;DHT22;10810;48.270;9.996;2023-05-10T05:27:43;12.70;99.90
21302;DHT22;10810;48.270;9.996;2023-05-10T05:30:34;12.80;99.90
21302;DHT22;10810;48.270;9.996;2023-05-10T05:33:41;12.80;99.90
21302;DHT22;10810;48.270;9.996;2023-05-10T05:36:22;12.80;99.90
21302;DHT22;10810;48.270;9.996;2023-05-10T05:42:34;12.90;99.90
21302;DHT22;10810;48.270;9.996;2023-05-10T05:45:13;13.10;99.90
21302;DHT22;10810;48.270;9.996;2023-05-10T05:47:44;13.00;99.90
21302;DHT22;10810;48.270;9.996;2023-05-10T05:50:28;13.00;99.90
21302;DHT22;10810;48.270;9.996;2023-05-10T05:53:17;13.00;99.90
21302;DHT22;10810;48.270;9.996;2023-05-10T05:55:51;13.00;99.90
21302;DHT22;10810;48.270;9.996;2023-05-10T05:58:33;13.00;99.90
21302;DHT22;10810;48.270;9.996;2023-05-10T06:01:16;13.10;99.90
21302;DHT22;10810;48.270;9.996;2023-05-10T06:03:47;13.20;99.90
21302;DHT22;10810;48.270;9.996;2023-05-10T06:06:26;13.10;99.90
21302;DHT22;10810;48.270;9.996;2023-05-10T06:08:53;13.10;99.90
21302;DHT22;10810;48.270;9.996;2023-05-10T06:11:38;13.10;99.90
21302;DHT22;10810;48.270;9.996;2023-05-10T06:20:18;13.30;99.90
21302;DHT22;10810;48.270;9.996;2023-05-10T06:22:45;13.30;99.90
21302;DHT22;10810;48.270;9.996;2023-05-10T06:25:12;13.40;99.90
21302;DHT22;10810;48.270;9.996;2023-05-10T06:27:41;13.40;99.90
21302;DHT22;10810;48.270;9.996;2023-05-10T06:30:09;13.40;99.90
21302;DHT22;10810;48.270;9.996;2023-05-10T06:32:38;13.50;99.90
21302;DHT22;10810;48.270;9.996;2023-05-10T06:35:06;13.50;99.90
21302;DHT22;10810;48.270;9.996;2023-05-10T06:37:35;13.50;99.90
21302;DHT22;10810;48.270;9.996;2023-05-10T06:40:02;13.60;99.90
21302;DHT22;10810;48.270;9.996;2023-05-10T06:42:29;13.70;99.90
21302;DHT22;10810;48.270;9.996;2023-05-10T06:44:56;13.70;99.90
21302;DHT22;10810;48.270;9.996;2023-05-10T06:47:24;13.70;99.90
21302;DHT22;10810;48.270;9.996;2023-05-10T06:49:51;13.70;99.90
21302;DHT22;10810;48.270;9.996;2023-05-10T06:52:18;13.70;99.90
21302;DHT22;10810;48.270;9.996;2023-05-10T06:54:46;13.70;99.90
21302;DHT22;10810;48.270;9.996;2023-05-10T06:57:13;13.70;99.90
21302;DHT22;10810;48.270;9.996;2023-05-10T06:59:40;13.70;99.90
21302;DHT22;10810;48.270;9.996;2023-05-10T07:02:07;13.70;99.90
21302;DHT22;10810;48.270;9.996;2023-05-10T07:04:36;13.80;99.90
21302;DHT22;10810;48.270;9.996;2023-05-10T07:07:03;13.80;99.90
21302;DHT22;10810;48.270;9.996;2023-05-10T07:09:30;13.90;99.90
21302;DHT22;10810;48.270;9.996;2023-05-10T07:11:59;14.00;99.90
21302;DHT22;10810;48.270;9.996;2023-05-10T07:14:27;14.20;99.90
21302;DHT22;10810;48.270;9.996;2023-05-10T07:16:54;14.30;99.90
21302;DHT22;10810;48.270;9.996;2023-05-10T07:19:21;14.40;99.90
21302;DHT22;10810;48.270;9.996;2023-05-10T07:22:19;14.50;99.90
21302;DHT22;10810;48.270;9.996;2023-05-10T07:24:38;14.50;99.90
21302;DHT22;10810;48.270;9.996;2023-05-10T07:27:19;14.60;99.90
21302;DHT22;10810;48.270;9.996;2023-05-10T07:29:53;14.60;99.90
21302;DHT22;10810;48.270;9.996;2023-05-10T07:32:36;14.70;99.90
21302;DHT22;10810;48.270;9.996;2023-05-10T07:35:08;14.70;99.90
21302;DHT22;10810;48.270;9.996;2023-05-10T07:37:58;14.50;99.90
21302;DHT22;10810;48.270;9.996;2023-05-10T07:40:58;14.50;99.90
21302;DHT22;10810;48.270;9.996;2023-05-10T07:44:01;14.50;99.90
21302;DHT22;10810;48.270;9.996;2023-05-10T07:56:27;14.50;99.90
21302;DHT22;10810;48.270;9.996;2023-05-10T07:59:20;14.50;99.90
21302;DHT22;10810;48.270;9.996;2023-05-10T08:02:13;14.60;99.90
21302;DHT22;10810;48.270;9.996;2023-05-10T08:05:09;14.60;99.90
21302;DHT22;10810;48.270;9.996;2023-05-10T08:09:35;14.60;99.90
21302;DHT22;10810;48.270;9.996;2023-05-10T08:11:21;14.50;99.90
21302;DHT22;10810;48.270;9.996;2023-05-10T08:13:49;14.60;99.90
21302;DHT22;10810;48.270;9.996;2023-05-10T08:16:20;14.60;99.90
21302;DHT22;10810;48.270;9.996;2023-05-10T08:22:37;15.00;99.90
21302;DHT22;10810;48.270;9.996;2023-05-10T08:25:27;15.60;99.90
21302;DHT22;10810;48.270;9.996;2023-05-10T08:28:24;15.20;99.90
21302;DHT22;10810;48.270;9.996;2023-05-10T08:31:14;14.20;99.90
21302;DHT22;10810;48.270;9.996;2023-05-10T08:33:58;15.30;99.90
21302;DHT22;10810;48.270;9.996;2023-05-10T08:36:31;15.30;99.90
21302;DHT22;10810;48.270;9.996;2023-05-10T08:38:58;15.30;99.90
21302;DHT22;10810;48.270;9.996;2023-05-10T08:41:25;15.30;99.90
21302;DHT22;10810;48.270;9.996;2023-05-10T08:43:54;15.30;99.90
21302;DHT22;10810;48.270;9.996;2023-05-10T08:49:45;15.40;99.90
21302;DHT22;10810;48.270;9.996;2023-05-10T08:58:41;15.30;99.90
21302;DHT22;10810;48.270;9.996;2023-05-10T09:01:48;15.20;99.90
21302;DHT22;10810;48.270;9.996;2023-05-10T09:17:09;15.60;99.90
21302;DHT22;10810;48.270;9.996;2023-05-10T09:19:39;15.60;99.90
21302;DHT22;10810;48.270;9.996;2023-05-10T09:22:12;15.50;99.90
21302;DHT22;10810;48.270;9.996;2023-05-10T09:28:49;15.20;99.90
21302;DHT22;10810;48.270;9.996;2023-05-10T09:34:33;15.60;99.90
21302;DHT22;10810;48.270;9.996;2023-05-10T09:37:19;15.80;99.90
21302;DHT22;10810;48.270;9.996;2023-05-10T09:40:08;15.70;99.90
21302;DHT22;10810;48.270;9.996;2023-05-10T09:42:52;15.90;99.90
21302;DHT22;10810;48.270;9.996;2023-05-10T09:45:22;15.90;99.90
21302;DHT22;10810;48.270;9.996;2023-05-10T09:47:51;16.00;99.90
21302;DHT22;10810;48.270;9.996;2023-05-10T09:54:09;16.20;99.90
21302;DHT22;10810;48.270;9.996;2023-05-10T09:56:58;16.20;99.90
21302;DHT22;10810;48.270;9.996;2023-05-10T09:59:27;16.20;99.90
21302;DHT22;10810;48.270;9.996;2023-05-10T10:02:19;16.30;99.90
21302;DHT22;10810;48.270;9.996;2023-05-10T10:05:13;16.20;99.90
21302;DHT22;10810;48.270;9.996;2023-05-10T10:08:06;15.60;99.90
21302;DHT22;10810;48.270;9.996;2023-05-10T10:10:52;16.10;99.90
21302;DHT22;10810;48.270;9.996;2023-05-10T10:20:13;16.30;99.90
21302;DHT22;10810;48.270;9.996;2023-05-10T10:23:09;16.50;99.90
21302;DHT22;10810;48.270;9.996;2023-05-10T10:25:36;16.40;99.90
21302;DHT22;10810;48.270;9.996;2023-05-10T10:28:19;16.40;99.90
21302;DHT22;10810;48.270;9.996;2023-05-10T10:31:02;16.30;99.90
21302;DHT22;10810;48.270;9.996;2023-05-10T10:33:56;16.30;99.90
21302;DHT22;10810;48.270;9.996;2023-05-10T10:36:50;16.20;99.90
21302;DHT22;10810;48.270;9.996;2023-05-10T10:39:18;16.00;99.90
21302;DHT22;10810;48.270;9.996;2023-05-10T10:41:50;16.00;99.90
21302;DHT22;10810;48.270;9.996;2023-05-10T10:44:26;16.00;99.90
21302;DHT22;10810;48.270;9.996;2023-05-10T10:47:06;16.10;99.90
21302;DHT22;10810;48.270;9.996;2023-05-10T10:49:48;16.30;99.90
21302;DHT22;10810;48.270;9.996;2023-05-10T10:52:22;16.30;99.90
21302;DHT22;10810;48.270;9.996;2023-05-10T10:55:00;16.40;99.90
21302;DHT22;10810;48.270;9.996;2023-05-10T10:57:27;16.50;99.90
21302;DHT22;10810;48.270;9.996;2023-05-10T11:00:26;16.50;99.90
21302;DHT22;10810;48.270;9.996;2023-05-10T11:02:56;16.40;99.90
21302;DHT22;10810;48.270;9.996;2023-05-10T11:08:17;16.20;99.90
21302;DHT22;10810;48.270;9.996;2023-05-10T11:11:03;16.20;99.90
21302;DHT22;10810;48.270;9.996;2023-05-10T11:13:34;16.20;99.90
21302;DHT22;10810;48.270;9.996;2023-05-10T11:16:16;16.10;99.90
21302;DHT22;10810;48.270;9.996;2023-05-10T11:18:57;16.10;99.90
21302;DHT22;10810;48.270;9.996;2023-05-10T11:21:28;16.20;99.90
21302;DHT22;10810;48.270;9.996;2023-05-10T11:23:58;16.10;99.90
21302;DHT22;10810;48.270;9.996;2023-05-10T11:26:30;16.20;99.90
21302;DHT22;10810;48.270;9.996;2023-05-10T11:28:57;16.20;99.90
21302;DHT22;10810;48.270;9.996;2023-05-10T11:31:26;16.30;99.90
21302;DHT22;10810;48.270;9.996;2023-05-10T11:35:28;16.20;99.90
21302;DHT22;10810;48.270;9.996;2023-05-10T11:37:32;16.20;99.90
21302;DHT22;10810;48.270;9.996;2023-05-10T11:40:30;16.10;99.90
21302;DHT22;10810;48.270;9.996;2023-05-10T11:43:33;15.90;99.90
21302;DHT22;10810;48.270;9.996;2023-05-10T11:48:07;15.70;99.90
21302;DHT22;10810;48.270;9.996;2023-05-10T11:52:45;15.60;99.90
21302;DHT22;10810;48.270;9.996;2023-05-10T11:55:52;15.50;99.90
21302;DHT22;10810;48.270;9.996;2023-05-10T11:58:55;15.50;99.90
21302;DHT22;10810;48.270;9.996;2023-05-10T12:01:45;15.50;99.90
21302;DHT22;10810;48.270;9.996;2023-05-10T12:04:53;15.40;99.90
21302;DHT22;10810;48.270;9.996;2023-05-10T12:10:48;15.10;99.90
21302;DHT22;10810;48.270;9.996;2023-05-10T12:13:24;15.50;99.90
21302;DHT22;10810;48.270;9.996;2023-05-10T12:15:53;15.50;99.90
21302;DHT22;10810;48.270;9.996;2023-05-10T12:18:32;15.40;99.90
21302;DHT22;10810;48.270;9.996;2023-05-10T12:21:24;15.20;99.90
21302;DHT22;10810;48.270;9.996;2023-05-10T12:24:07;15.20;99.90
21302;DHT22;10810;48.270;9.996;2023-05-10T12:26:58;15.20;99.90
21302;DHT22;10810;48.270;9.996;2023-05-10T12:29:29;15.20;99.90
21302;DHT22;10810;48.270;9.996;2023-05-10T12:32:00;15.10;99.90
21302;DHT22;10810;48.270;9.996;2023-05-10T12:35:08;15.00;99.90
21302;DHT22;10810;48.270;9.996;2023-05-10T12:37:27;14.90;99.90
21302;DHT22;10810;48.270;9.996;2023-05-10T12:39:57;15.00;99.90
21302;DHT22;10810;48.270;9.996;2023-05-10T12:42:34;15.00;99.90
21302;DHT22;10810;48.270;9.996;2023-05-10T12:45:31;15.10;99.90
21302;DHT22;10810;48.270;9.996;2023-05-10T12:48:15;15.10;99.90
21302;DHT22;10810;48.270;9.996;2023-05-10T12:50:48;15.30;99.90
21302;DHT22;10810;48.270;9.996;2023-05-10T12:53:20;15.10;99.90
21302;DHT22;10810;48.270;9.996;2023-05-10T12:55:54;15.00;99.90
21302;DHT22;10810;48.270;9.996;2023-05-10T12:58:33;15.00;99.90
21302;DHT22;10810;48.270;9.996;2023-05-10T13:01:00;15.20;99.90
21302;DHT22;10810;48.270;9.996;2023-05-10T13:03:34;15.20;99.90
21302;DHT22;10810;48.270;9.996;2023-05-10T13:06:02;15.20;99.90
21302;DHT22;10810;48.270;9.996;2023-05-10T13:08:29;15.20;99.90
21302;DHT22;10810;48.270;9.996;2023-05-10T13:11:02;15.10;99.90
21302;DHT22;10810;48.270;9.996;2023-05-10T13:13:31;15.10;99.90
21302;DHT22;10810;48.270;9.996;2023-05-10T13:15:58;15.00;99.90
21302;DHT22;10810;48.270;9.996;2023-05-10T13:18:25;14.90;99.90
21302;DHT22;10810;48.270;9.996;2023-05-10T13:20:53;14.90;99.90
21302;DHT22;10810;48.270;9.996;2023-05-10T13:23:21;14.90;99.90
21302;DHT22;10810;48.270;9.996;2023-05-10T13:25:49;15.00;99.90
21302;DHT22;10810;48.270;9.996;2023-05-10T13:28:24;15.00;99.90
21302;DHT22;10810;48.270;9.996;2023-05-10T13:31:06;15.00;99.90
21302;DHT22;10810;48.270;9.996;2023-05-10T13:33:37;15.00;99.90
21302;DHT22;10810;48.270;9.996;2023-05-10T13:36:14;15.10;99.90
21302;DHT22;10810;48.270;9.996;2023-05-10T13:39:02;15.20;99.90
21302;DHT22;10810;48.270;9.996;2023-05-10T13:41:32;14.90;99.90
21302;DHT22;10810;48.270;9.996;2023-05-10T13:44:02;13.90;99.90
21302;DHT22;10810;48.270;9.996;2023-05-10T13:46:45;13.60;99.90
21302;DHT22;10810;48.270;9.996;2023-05-10T13:49:28;13.50;99.90
21302;DHT22;10810;48.270;9.996;2023-05-10T13:52:01;13.20;99.90
21302;DHT22;10810;48.270;9.996;2023-05-10T13:54:31;13.20;99.90
21302;DHT22;10810;48.270;9.996;2023-05-10T13:57:21;13.20;99.90
21302;DHT22;10810;48.270;9.996;2023-05-10T14:00:09;13.30;99.90
21302;DHT22;10810;48.270;9.996;2023-05-10T14:02:39;13.40;99.90
21302;DHT22;10810;48.270;9.996;2023-05-10T14:05:14;13.40;99.90
21302;DHT22;10810;48.270;9.996;2023-05-10T14:07:46;13.60;99.90
21302;DHT22;10810;48.270;9.996;2023-05-10T14:10:14;13.60;99.90
21302;DHT22;10810;48.270;9.996;2023-05-10T14:12:44;13.60;99.90
21302;DHT22;10810;48.270;9.996;2023-05-10T14:15:15;13.60;99.90
21302;DHT22;10810;48.270;9.996;2023-05-10T14:17:42;13.70;99.90
21302;DHT22;10810;48.270;9.996;2023-05-10T14:20:09;13.80;99.90
21302;DHT22;10810;48.270;9.996;2023-05-10T14:22:39;13.90;99.90
21302;DHT22;10810;48.270;9.996;2023-05-10T14:25:08;13.90;99.90
21302;DHT22;10810;48.270;9.996;2023-05-10T14:27:35;14.00;99.90
21302;DHT22;10810;48.270;9.996;2023-05-10T14:30:03;14.00;99.90
21302;DHT22;10810;48.270;9.996;2023-05-10T14:32:31;14.00;99.90
21302;DHT22;10810;48.270;9.996;2023-05-10T14:35:03;13.80;99.90
21302;DHT22;10810;48.270;9.996;2023-05-10T14:37:31;13.80;99.90
21302;DHT22;10810;48.270;9.996;2023-05-10T14:40:06;13.90;99.90
21302;DHT22;10810;48.270;9.996;2023-05-10T14:42:41;13.90;99.90
21302;DHT22;10810;48.270;9.996;2023-05-10T14:45:16;13.80;99.90
21302;DHT22;10810;48.270;9.996;2023-05-10T14:47:51;13.90;99.90
21302;DHT22;10810;48.270;9.996;2023-05-10T14:51:11;14.00;99.90
21302;DHT22;10810;48.270;9.996;2023-05-10T14:54:20;14.10;99.90
21302;DHT22;10810;48.270;9.996;2023-05-10T15:12:51;14.30;99.90
21302;DHT22;10810;48.270;9.996;2023-05-10T15:15:22;14.30;99.90
21302;DHT22;10810;48.270;9.996;2023-05-10T15:17:49;14.20;99.90
21302;DHT22;10810;48.270;9.996;2023-05-10T15:20:16;14.10;99.90
21302;DHT22;10810;48.270;9.996;2023-05-10T15:22:43;14.00;99.90
21302;DHT22;10810;48.270;9.996;2023-05-10T15:25:10;14.00;99.90
21302;DHT22;10810;48.270;9.996;2023-05-10T15:27:43;13.80;99.90
21302;DHT22;10810;48.270;9.996;2023-05-10T15:30:18;13.70;99.90
21302;DHT22;10810;48.270;9.996;2023-05-10T15:36:18;13.70;99.90
21302;DHT22;10810;48.270;9.996;2023-05-10T15:38:45;13.10;99.90
21302;DHT22;10810;48.270;9.996;2023-05-10T15:41:12;13.80;99.90
21302;DHT22;10810;48.270;9.996;2023-05-10T15:44:08;13.70;99.90
21302;DHT22;10810;48.270;9.996;2023-05-10T15:50:21;13.50;99.90
21302;DHT22;10810;48.270;9.996;2023-05-10T15:53:34;13.70;99.90
21302;DHT22;10810;48.270;9.996;2023-05-10T15:56:06;14.00;99.90
21302;DHT22;10810;48.270;9.996;2023-05-10T15:58:35;13.60;99.90
21302;DHT22;10810;48.270;9.996;2023-05-10T16:17:41;13.00;99.90
21302;DHT22;10810;48.270;9.996;2023-05-10T16:21:42;13.10;99.90
21302;DHT22;10810;48.270;9.996;2023-05-10T16:30:54;13.10;99.90
21302;DHT22;10810;48.270;9.996;2023-05-10T16:50:26;13.10;99.90
21302;DHT22;10810;48.270;9.996;2023-05-10T16:58:43;13.00;99.90
21302;DHT22;10810;48.270;9.996;2023-05-10T17:01:14;12.90;99.90
21302;DHT22;10810;48.270;9.996;2023-05-10T17:27:30;12.50;99.90
21302;DHT22;10810;48.270;9.996;2023-05-10T17:36:54;12.70;99.90
21302;DHT22;10810;48.270;9.996;2023-05-10T17:49:33;12.20;99.90
21302;DHT22;10810;48.270;9.996;2023-05-10T17:55:52;12.40;99.90
21302;DHT22;10810;48.270;9.996;2023-05-10T17:58:46;12.20;99.90
21302;DHT22;10810;48.270;9.996;2023-05-10T18:01:17;12.20;99.90
21302;DHT22;10810;48.270;9.996;2023-05-10T18:03:47;12.10;99.90
21302;DHT22;10810;48.270;9.996;2023-05-10T18:52:08;11.50;99.90
21302;DHT22;10810;48.270;9.996;2023-05-10T20:06:12;11.60;99.90
21302;DHT22;10810;48.270;9.996;2023-05-10T20:12:51;11.60;99.90
21302;DHT22;10810;48.270;9.996;2023-05-10T20:15:42;11.50;99.90
21302;DHT22;10810;48.270;9.996;2023-05-10T20:25:32;10.70;99.90
21302;DHT22;10810;48.270;9.996;2023-05-10T20:35:48;11.50;99.90
21302;DHT22;10810;48.270;9.996;2023-05-10T20:51:43;11.30;99.90
21302;DHT22;10810;48.270;9.996;2023-05-10T21:01:16;11.30;99.90
21302;DHT22;10810;48.270;9.996;2023-05-10T21:07:18;11.50;99.90
21302;DHT22;10810;48.270;9.996;2023-05-10T21:09:58;11.50;99.90
21302;DHT22;10810;48.270;9.996;2023-05-10T21:12:29;11.40;99.90
21302;DHT22;10810;48.270;9.996;2023-05-10T21:15:24;11.40;99.90
21302;DHT22;10810;48.270;9.996;2023-05-10T21:17:57;11.00;99.90
21302;DHT22;10810;48.270;9.996;2023-05-10T21:20:24;11.40;99.90
21302;DHT22;10810;48.270;9.996;2023-05-10T21:22:52;11.40;99.90
21302;DHT22;10810;48.270;9.996;2023-05-10T21:25:20;11.30;99.90
21302;DHT22;10810;48.270;9.996;2023-05-10T21:27:49;11.40;99.90
21302;DHT22;10810;48.270;9.996;2023-05-10T21:30:33;11.50;99.90
21302;DHT22;10810;48.270;9.996;2023-05-10T21:33:00;11.30;99.90
21302;DHT22;10810;48.270;9.996;2023-05-10T21:35:28;11.20;99.90
21302;DHT22;10810;48.270;9.996;2023-05-10T21:38:00;11.30;99.90
21302;DHT22;10810;48.270;9.996;2023-05-10T21:40:33;11.40;99.90
21302;DHT22;10810;48.270;9.996;2023-05-10T21:43:15;11.50;99.90
21302;DHT22;10810;48.270;9.996;2023-05-10T21:45:48;11.40;99.90
21302;DHT22;10810;48.270;9.996;2023-05-10T21:48:38;11.40;99.90
21302;DHT22;10810;48.270;9.996;2023-05-10T21:51:10;11.40;99.90
21302;DHT22;10810;48.270;9.996;2023-05-10T21:53:52;11.40;99.90
21302;DHT22;10810;48.270;9.996;2023-05-10T21:56:19;11.40;99.90
21302;DHT22;10810;48.270;9.996;2023-05-10T21:59:07;11.50;99.90
21302;DHT22;10810;48.270;9.996;2023-05-10T22:01:55;11.50;99.90
21302;DHT22;10810;48.270;9.996;2023-05-10T22:04:56;11.50;99.90
21302;DHT22;10810;48.270;9.996;2023-05-10T22:07:31;11.40;99.90
21302;DHT22;10810;48.270;9.996;2023-05-10T22:10:12;11.20;99.90
21302;DHT22;10810;48.270;9.996;2023-05-10T22:12:43;11.20;99.90
21302;DHT22;10810;48.270;9.996;2023-05-10T22:15:29;11.20;99.90
21302;DHT22;10810;48.270;9.996;2023-05-10T22:18:00;11.20;99.90
21302;DHT22;10810;48.270;9.996;2023-05-10T22:20:45;11.30;99.90
21302;DHT22;10810;48.270;9.996;2023-05-10T22:25:59;11.40;99.90
21302;DHT22;10810;48.270;9.996;2023-05-10T22:28:48;11.30;99.90
21302;DHT22;10810;48.270;9.996;2023-05-10T22:31:37;11.20;99.90
21302;DHT22;10810;48.270;9.996;2023-05-10T22:34:17;11.20;99.90
21302;DHT22;10810;48.270;9.996;2023-05-10T22:37:14;11.20;99.90
21302;DHT22;10810;48.270;9.996;2023-05-10T22:39:45;11.30;99.90
21302;DHT22;10810;48.270;9.996;2023-05-10T22:42:55;11.20;99.90
21302;DHT22;10810;48.270;9.996;2023-05-10T22:50:53;11.10;99.90
21302;DHT22;10810;48.270;9.996;2023-05-10T22:53:35;11.10;99.90
21302;DHT22;10810;48.270;9.996;2023-05-10T22:58:52;11.00;99.90
21302;DHT22;10810;48.270;9.996;2023-05-10T23:01:49;11.00;99.90
21302;DHT22;10810;48.270;9.996;2023-05-10T23:04:16;11.10;99.90
21302;DHT22;10810;48.270;9.996;2023-05-10T23:07:03;11.00;99.90
21302;DHT22;10810;48.270;9.996;2023-05-10T23:09:40;11.00;99.90
21302;DHT22;10810;48.270;9.996;2023-05-10T23:14:45;11.00;99.90
21302;DHT22;10810;48.270;9.996;2023-05-10T23:17:12;11.00;99.90
21302;DHT22;10810;48.270;9.996;2023-05-10T23:19:41;11.10;99.90
21302;DHT22;10810;48.270;9.996;2023-05-10T23:22:08;11.10;99.90
21302;DHT22;10810;48.270;9.996;2023-05-10T23:24:36;11.10;99.90
21302;DHT22;10810;48.270;9.996;2023-05-10T23:27:15;11.00;99.90
21302;DHT22;10810;48.270;9.996;2023-05-10T23:29:45;11.00;99.90
21302;DHT22;10810;48.270;9.996;2023-05-10T23:32:26;11.20;99.90
21302;DHT22;10810;48.270;9.996;2023-05-10T23:40:55;8.80;99.90
21302;DHT22;10810;48.270;9.996;2023-05-10T23:43:28;11.10;99.90
21302;DHT22;10810;48.270;9.996;2023-05-10T23:45:59;11.20;99.90
21302;DHT22;10810;48.270;9.996;2023-05-10T23:50:42;11.20;99.90
21302;DHT22;10810;48.270;9.996;2023-05-10T23:52:28;11.20;99.90
21302;DHT22;10810;48.270;9.996;2023-05-10T23:54:55;11.20;99.90
21302;DHT22;10810;48.270;9.996;2023-05-10T23:57:34;11.10;99.90
